sensor_id;sensor_type;location;lat;lon;timestamp;pressure;altitude;pressure_sealevel;temperature;humidity
76998;BME280;65930;48.874;10.734;2024-03-25T00:00:22;95198.47;;;3.68;100.00
76998;BME280;65930;48.874;10.734;2024-03-25T00:02:52;95198.50;;;3.72;100.00
76998;BME280;65930;48.874;10.734;2024-03-25T00:05:19;95199.25;;;3.69;100.00
76998;BME280;65930;48.874;10.734;2024-03-25T00:07:48;95206.31;;;3.70;100.00
76998;BME280;65930;48.874;10.734;2024-03-25T00:10:15;95193.44;;;3.74;100.00
76998;BME280;65930;48.874;10.734;2024-03-25T00:12:41;95201.25;;;3.72;100.00
76998;BME280;65930;48.874;10.734;2024-03-25T00:15:09;95193.38;;;3.67;100.00
76998;BME280;65930;48.874;10.734;2024-03-25T00:17:35;95189.47;;;3.68;100.00
76998;BME280;65930;48.874;10.734;2024-03-25T00:20:04;95198.84;;;3.67;100.00
76998;BME280;65930;48.874;10.734;2024-03-25T00:22:34;95189.06;;;3.66;100.00
76998;BME280;65930;48.874;10.734;2024-03-25T00:25:02;95197.28;;;3.66;100.00
76998;BME280;65930;48.874;10.734;2024-03-25T00:27:28;95205.50;;;3.69;100.00
76998;BME280;65930;48.874;10.734;2024-03-25T00:29:55;95198.84;;;3.67;100.00
76998;BME280;65930;48.874;10.734;2024-03-25T00:32:21;95211.38;;;3.68;100.00
76998;BME280;65930;48.874;10.734;2024-03-25T00:34:48;95203.13;;;3.64;100.00
76998;BME280;65930;48.874;10.734;2024-03-25T00:37:16;95201.97;;;3.69;100.00
76998;BME280;65930;48.874;10.734;2024-03-25T00:39:43;95197.34;;;3.73;100.00
76998;BME280;65930;48.874;10.734;2024-03-25T00:42:09;95184.81;;;3.72;100.00
76998;BME280;65930;48.874;10.734;2024-03-25T00:44:36;95192.25;;;3.71;100.00
76998;BME280;65930;48.874;10.734;2024-03-25T00:47:02;95189.88;;;3.70;100.00
76998;BME280;65930;48.874;10.734;2024-03-25T00:49:29;95187.13;;;3.70;100.00
76998;BME280;65930;48.874;10.734;2024-03-25T00:51:55;95194.97;;;3.71;100.00
76998;BME280;65930;48.874;10.734;2024-03-25T00:54:24;95190.28;;;3.72;100.00
76998;BME280;65930;48.874;10.734;2024-03-25T00:56:50;95202.41;;;3.71;100.00
76998;BME280;65930;48.874;10.734;2024-03-25T00:59:19;95196.56;;;3.72;100.00
76998;BME280;65930;48.874;10.734;2024-03-25T01:01:45;95191.09;;;3.72;100.00
76998;BME280;65930;48.874;10.734;2024-03-25T01:04:12;95201.28;;;3.75;100.00
76998;BME280;65930;48.874;10.734;2024-03-25T01:06:38;95188.38;;;3.76;100.00
76998;BME280;65930;48.874;10.734;2024-03-25T01:09:05;95192.69;;;3.77;100.00
76998;BME280;65930;48.874;10.734;2024-03-25T01:11:34;95193.03;;;3.72;100.00
76998;BME280;65930;48.874;10.734;2024-03-25T01:14:02;95190.69;;;3.74;100.00
76998;BME280;65930;48.874;10.734;2024-03-25T01:16:28;95195.78;;;3.72;100.00
76998;BME280;65930;48.874;10.734;2024-03-25T01:18:55;95193.41;;;3.70;100.00
76998;BME280;65930;48.874;10.734;2024-03-25T01:21:21;95185.56;;;3.69;100.00
76998;BME280;65930;48.874;10.734;2024-03-25T01:23:48;95180.50;;;3.71;100.00
76998;BME280;65930;48.874;10.734;2024-03-25T01:26:14;95187.13;;;3.70;100.00
76998;BME280;65930;48.874;10.734;2024-03-25T01:28:42;95190.28;;;3.72;100.00
76998;BME280;65930;48.874;10.734;2024-03-25T01:31:08;95186.75;;;3.71;100.00
76998;BME280;65930;48.874;10.734;2024-03-25T01:33:35;95184.84;;;3.75;100.00
76998;BME280;65930;48.874;10.734;2024-03-25T01:36:03;95185.22;;;3.74;100.00
76998;BME280;65930;48.874;10.734;2024-03-25T01:38:30;95184.06;;;3.75;100.00
76998;BME280;65930;48.874;10.734;2024-03-25T01:41:07;95198.16;;;3.73;100.00
76998;BME280;65930;48.874;10.734;2024-03-25T01:43:34;95185.22;;;3.74;100.00
76998;BME280;65930;48.874;10.734;2024-03-25T01:46:01;95189.47;;;3.68;100.00
76998;BME280;65930;48.874;10.734;2024-03-25T01:48:29;95196.91;;;3.67;100.00
76998;BME280;65930;48.874;10.734;2024-03-25T01:50:56;95184.41;;;3.70;100.00
76998;BME280;65930;48.874;10.734;2024-03-25T01:53:27;95189.47;;;3.68;100.00
76998;BME280;65930;48.874;10.734;2024-03-25T01:55:56;95186.31;;;3.66;100.00
76998;BME280;65930;48.874;10.734;2024-03-25T01:58:25;95180.03;;;3.65;100.00
76998;BME280;65930;48.874;10.734;2024-03-25T02:00:52;95185.50;;;3.62;100.00
76998;BME280;65930;48.874;10.734;2024-03-25T02:03:22;95185.47;;;3.58;100.00
76998;BME280;65930;48.874;10.734;2024-03-25T02:05:53;95188.56;;;3.53;100.00
76998;BME280;65930;48.874;10.734;2024-03-25T02:08:22;95179.56;;;3.56;100.00
76998;BME280;65930;48.874;10.734;2024-03-25T02:10:48;95183.44;;;3.51;100.00
76998;BME280;65930;48.874;10.734;2024-03-25T02:13:16;95186.97;;;3.52;100.00
76998;BME280;65930;48.874;10.734;2024-03-25T02:15:41;95186.50;;;3.46;100.00
76998;BME280;65930;48.874;10.734;2024-03-25T02:18:08;95185.38;;;3.51;100.00
76998;BME280;65930;48.874;10.734;2024-03-25T02:20:36;95183.78;;;3.46;100.00
76998;BME280;65930;48.874;10.734;2024-03-25T02:23:03;95180.66;;;3.44;100.00
76998;BME280;65930;48.874;10.734;2024-03-25T02:25:33;95186.84;;;3.41;100.00
76998;BME280;65930;48.874;10.734;2024-03-25T02:28:01;95185.34;;;3.44;100.00
76998;BME280;65930;48.874;10.734;2024-03-25T02:30:27;95189.66;;;3.45;100.00
76998;BME280;65930;48.874;10.734;2024-03-25T02:32:54;95190.84;;;3.47;100.00
76998;BME280;65930;48.874;10.734;2024-03-25T02:35:22;95175.56;;;3.46;100.00
76998;BME280;65930;48.874;10.734;2024-03-25T02:37:51;95183.00;;;3.46;100.00
76998;BME280;65930;48.874;10.734;2024-03-25T02:40:18;95189.66;;;3.45;100.00
76998;BME280;65930;48.874;10.734;2024-03-25T02:42:46;95184.56;;;3.47;100.00
76998;BME280;65930;48.874;10.734;2024-03-25T02:45:13;95179.88;;;3.47;100.00
76998;BME280;65930;48.874;10.734;2024-03-25T02:47:41;95184.53;;;3.43;100.00
76998;BME280;65930;48.874;10.734;2024-03-25T02:50:07;95180.88;;;3.29;100.00
76998;BME280;65930;48.874;10.734;2024-03-25T02:52:34;95179.63;;;3.23;100.00
76998;BME280;65930;48.874;10.734;2024-03-25T02:55:01;95191.34;;;3.23;100.00
76998;BME280;65930;48.874;10.734;2024-03-25T02:57:28;95186.66;;;3.24;100.00
76998;BME280;65930;48.874;10.734;2024-03-25T02:59:54;95184.72;;;3.24;100.00
76998;BME280;65930;48.874;10.734;2024-03-25T03:02:22;95198.28;;;3.14;100.00
76998;BME280;65930;48.874;10.734;2024-03-25T03:04:48;95196.34;;;3.14;100.00
76998;BME280;65930;48.874;10.734;2024-03-25T03:07:15;95189.56;;;3.04;100.00
76998;BME280;65930;48.874;10.734;2024-03-25T03:09:42;95190.03;;;3.10;100.00
76998;BME280;65930;48.874;10.734;2024-03-25T03:12:09;95196.75;;;3.16;100.00
76998;BME280;65930;48.874;10.734;2024-03-25T03:14:35;95195.22;;;3.19;100.00
76998;BME280;65930;48.874;10.734;2024-03-25T03:17:03;95196.00;;;3.19;100.00
76998;BME280;65930;48.874;10.734;2024-03-25T03:19:32;95194.34;;;3.11;100.00
76998;BME280;65930;48.874;10.734;2024-03-25T03:21:59;95202.22;;;3.16;100.00
76998;BME280;65930;48.874;10.734;2024-03-25T03:24:25;95195.16;;;3.12;100.00
76998;BME280;65930;48.874;10.734;2024-03-25T03:26:52;95193.19;;;3.12;100.00
76998;BME280;65930;48.874;10.734;2024-03-25T03:29:18;95186.53;;;3.13;100.00
76998;BME280;65930;48.874;10.734;2024-03-25T03:31:45;95185.78;;;3.13;100.00
76998;BME280;65930;48.874;10.734;2024-03-25T03:34:11;95187.34;;;3.14;100.00
76998;BME280;65930;48.874;10.734;2024-03-25T03:36:39;95181.50;;;3.15;100.00
76998;BME280;65930;48.874;10.734;2024-03-25T03:39:06;95193.59;;;3.14;100.00
76998;BME280;65930;48.874;10.734;2024-03-25T03:41:34;95186.22;;;3.18;100.00
76998;BME280;65930;48.874;10.734;2024-03-25T03:44:01;95185.81;;;3.16;100.00
76998;BME280;65930;48.874;10.734;2024-03-25T03:46:28;95188.94;;;3.18;100.00
76998;BME280;65930;48.874;10.734;2024-03-25T03:48:54;95188.56;;;3.16;100.00
76998;BME280;65930;48.874;10.734;2024-03-25T03:51:21;95190.13;;;3.17;100.00
76998;BME280;65930;48.874;10.734;2024-03-25T03:53:49;95191.75;;;3.22;100.00
76998;BME280;65930;48.874;10.734;2024-03-25T03:56:16;95200.00;;;3.25;100.00
76998;BME280;65930;48.874;10.734;2024-03-25T03:58:42;95190.66;;;3.30;100.00
76998;BME280;65930;48.874;10.734;2024-03-25T04:01:14;95188.38;;;3.35;100.00
76998;BME280;65930;48.874;10.734;2024-03-25T04:03:41;95196.66;;;3.42;100.00
76998;BME280;65930;48.874;10.734;2024-03-25T04:06:10;95204.09;;;3.45;100.00
76998;BME280;65930;48.874;10.734;2024-03-25T04:08:36;95204.53;;;3.47;100.00
76998;BME280;65930;48.874;10.734;2024-03-25T04:11:05;95201.44;;;3.52;100.00
76998;BME280;65930;48.874;10.734;2024-03-25T04:13:32;95197.13;;;3.51;100.00
76998;BME280;65930;48.874;10.734;2024-03-25T04:16:04;95204.19;;;3.52;100.00
76998;BME280;65930;48.874;10.734;2024-03-25T04:18:32;95204.16;;;3.49;100.00
76998;BME280;65930;48.874;10.734;2024-03-25T04:21:00;95200.63;;;3.48;100.00
76998;BME280;65930;48.874;10.734;2024-03-25T04:23:26;95201.03;;;3.50;100.00
76998;BME280;65930;48.874;10.734;2024-03-25T04:25:53;95201.03;;;3.50;100.00
76998;BME280;65930;48.874;10.734;2024-03-25T04:28:21;95202.59;;;3.51;100.00
76998;BME280;65930;48.874;10.734;2024-03-25T04:30:53;95197.50;;;3.50;100.00
76998;BME280;65930;48.874;10.734;2024-03-25T04:33:19;95199.47;;;3.49;100.00
76998;BME280;65930;48.874;10.734;2024-03-25T04:35:47;95197.09;;;3.48;100.00
76998;BME280;65930;48.874;10.734;2024-03-25T04:38:16;95199.81;;;3.44;100.00
76998;BME280;65930;48.874;10.734;2024-03-25T04:40:42;95205.63;;;3.39;100.00
76998;BME280;65930;48.874;10.734;2024-03-25T04:43:09;95201.66;;;3.37;100.00
76998;BME280;65930;48.874;10.734;2024-03-25T04:45:36;95205.13;;;3.30;100.00
76998;BME280;65930;48.874;10.734;2024-03-25T04:48:02;95206.28;;;3.29;100.00
76998;BME280;65930;48.874;10.734;2024-03-25T04:50:30;95203.13;;;3.27;100.00
76998;BME280;65930;48.874;10.734;2024-03-25T04:52:56;95207.03;;;3.26;100.00
76998;BME280;65930;48.874;10.734;2024-03-25T04:55:22;95203.44;;;3.22;100.00
76998;BME280;65930;48.874;10.734;2024-03-25T04:57:48;95205.38;;;3.18;100.00
76998;BME280;65930;48.874;10.734;2024-03-25T05:00:15;95207.28;;;3.14;100.00
76998;BME280;65930;48.874;10.734;2024-03-25T05:02:43;95214.66;;;3.10;100.00
76998;BME280;65930;48.874;10.734;2024-03-25T05:05:09;95208.66;;;2.97;100.00
76998;BME280;65930;48.874;10.734;2024-03-25T05:07:35;95205.78;;;2.87;100.00
76998;BME280;65930;48.874;10.734;2024-03-25T05:10:01;95216.63;;;2.80;100.00
76998;BME280;65930;48.874;10.734;2024-03-25T05:12:27;95215.00;;;2.75;100.00
76998;BME280;65930;48.874;10.734;2024-03-25T05:14:53;95222.81;;;2.77;100.00
76998;BME280;65930;48.874;10.734;2024-03-25T05:17:19;95223.97;;;2.76;100.00
76998;BME280;65930;48.874;10.734;2024-03-25T05:19:47;95217.75;;;2.75;100.00
76998;BME280;65930;48.874;10.734;2024-03-25T05:22:13;95232.19;;;2.76;100.00
76998;BME280;65930;48.874;10.734;2024-03-25T05:24:39;95235.28;;;2.71;100.00
76998;BME280;65930;48.874;10.734;2024-03-25T05:27:05;95232.53;;;2.71;100.00
76998;BME280;65930;48.874;10.734;2024-03-25T05:29:31;95238.41;;;2.73;100.00
76998;BME280;65930;48.874;10.734;2024-03-25T05:31:59;95227.47;;;2.73;100.00
76998;BME280;65930;48.874;10.734;2024-03-25T05:34:26;95246.25;;;2.74;100.00
76998;BME280;65930;48.874;10.734;2024-03-25T05:36:55;95241.97;;;2.77;100.00
76998;BME280;65930;48.874;10.734;2024-03-25T05:39:21;95251.75;;;2.78;100.00
76998;BME280;65930;48.874;10.734;2024-03-25T05:41:47;95243.13;;;2.76;100.00
76998;BME280;65930;48.874;10.734;2024-03-25T05:44:14;95249.38;;;2.76;100.00
76998;BME280;65930;48.874;10.734;2024-03-25T05:46:40;95262.19;;;2.69;100.00
76998;BME280;65930;48.874;10.734;2024-03-25T05:49:06;95252.34;;;2.64;100.00
76998;BME280;65930;48.874;10.734;2024-03-25T05:51:33;95251.13;;;2.61;100.00
76998;BME280;65930;48.874;10.734;2024-03-25T05:54:01;95257.81;;;2.64;100.00
76998;BME280;65930;48.874;10.734;2024-03-25T05:56:30;95257.34;;;2.58;100.00
76998;BME280;65930;48.874;10.734;2024-03-25T05:58:56;95262.41;;;2.56;100.00
76998;BME280;65930;48.874;10.734;2024-03-25T06:01:23;95271.81;;;2.59;100.00
76998;BME280;65930;48.874;10.734;2024-03-25T06:03:49;95269.44;;;2.57;100.00
76998;BME280;65930;48.874;10.734;2024-03-25T06:06:15;95267.13;;;2.59;100.00
76998;BME280;65930;48.874;10.734;2024-03-25T06:08:41;95271.19;;;2.69;100.00
76998;BME280;65930;48.874;10.734;2024-03-25T06:11:09;95270.16;;;2.81;100.00
76998;BME280;65930;48.874;10.734;2024-03-25T06:13:35;95274.63;;;2.92;100.00
76998;BME280;65930;48.874;10.734;2024-03-25T06:16:01;95271.69;;;3.08;100.00
76998;BME280;65930;48.874;10.734;2024-03-25T06:18:27;95275.66;;;3.10;100.00
76998;BME280;65930;48.874;10.734;2024-03-25T06:20:53;95281.28;;;3.21;100.00
76998;BME280;65930;48.874;10.734;2024-03-25T06:23:24;95275.88;;;3.28;100.00
76998;BME280;65930;48.874;10.734;2024-03-25T06:25:50;95279.81;;;3.31;100.00
76998;BME280;65930;48.874;10.734;2024-03-25T06:28:18;95279.81;;;3.31;100.00
76998;BME280;65930;48.874;10.734;2024-03-25T06:30:45;95287.06;;;3.16;100.00
76998;BME280;65930;48.874;10.734;2024-03-25T06:33:29;95277.31;;;3.19;100.00
76998;BME280;65930;48.874;10.734;2024-03-25T06:36:14;95271.16;;;3.25;100.00
76998;BME280;65930;48.874;10.734;2024-03-25T06:38:40;95273.41;;;3.20;100.00
76998;BME280;65930;48.874;10.734;2024-03-25T06:41:06;95273.13;;;3.28;100.00
76998;BME280;65930;48.874;10.734;2024-03-25T06:43:34;95278.25;;;3.30;100.00
76998;BME280;65930;48.874;10.734;2024-03-25T06:46:00;95269.88;;;3.19;100.00
76998;BME280;65930;48.874;10.734;2024-03-25T06:48:26;95281.00;;;3.33;100.00
76998;BME280;65930;48.874;10.734;2024-03-25T06:50:53;95271.88;;;3.22;100.00
76998;BME280;65930;48.874;10.734;2024-03-25T06:53:19;95272.81;;;3.33;100.00
76998;BME280;65930;48.874;10.734;2024-03-25T06:55:52;95277.84;;;3.31;100.00
76998;BME280;65930;48.874;10.734;2024-03-25T06:58:19;95275.13;;;3.31;100.00
76998;BME280;65930;48.874;10.734;2024-03-25T07:00:47;95275.97;;;3.35;100.00
76998;BME280;65930;48.874;10.734;2024-03-25T07:03:14;95278.38;;;3.40;100.00
76998;BME280;65930;48.874;10.734;2024-03-25T07:05:41;95283.84;;;3.40;100.00
76998;BME280;65930;48.874;10.734;2024-03-25T07:08:07;95281.00;;;3.33;100.00
76998;BME280;65930;48.874;10.734;2024-03-25T07:10:33;95281.69;;;3.27;100.00
76998;BME280;65930;48.874;10.734;2024-03-25T07:12:59;95277.94;;;3.38;100.00
76998;BME280;65930;48.874;10.734;2024-03-25T07:15:25;95280.75;;;3.45;100.00
76998;BME280;65930;48.874;10.734;2024-03-25T07:17:52;95281.56;;;3.46;100.00
76998;BME280;65930;48.874;10.734;2024-03-25T07:20:19;95285.28;;;3.64;100.00
76998;BME280;65930;48.874;10.734;2024-03-25T07:22:45;95286.50;;;3.67;100.00
76998;BME280;65930;48.874;10.734;2024-03-25T07:25:11;95291.22;;;3.70;100.00
76998;BME280;65930;48.874;10.734;2024-03-25T07:27:37;95292.78;;;3.71;100.00
76998;BME280;65930;48.874;10.734;2024-03-25T07:30:04;95289.25;;;3.70;100.00
76998;BME280;65930;48.874;10.734;2024-03-25T07:32:30;95290.50;;;3.76;100.00
76998;BME280;65930;48.874;10.734;2024-03-25T07:34:58;95293.72;;;3.82;100.00
76998;BME280;65930;48.874;10.734;2024-03-25T07:37:24;95293.13;;;3.66;100.00
76998;BME280;65930;48.874;10.734;2024-03-25T07:39:50;95294.22;;;3.58;100.00
76998;BME280;65930;48.874;10.734;2024-03-25T07:42:18;95283.25;;;3.58;100.00
76998;BME280;65930;48.874;10.734;2024-03-25T07:44:45;95290.72;;;3.61;100.00
76998;BME280;65930;48.874;10.734;2024-03-25T07:47:11;95288.06;;;3.68;100.00
76998;BME280;65930;48.874;10.734;2024-03-25T07:49:37;95293.44;;;3.57;100.00
76998;BME280;65930;48.874;10.734;2024-03-25T07:52:05;95300.66;;;3.72;100.00
76998;BME280;65930;48.874;10.734;2024-03-25T07:54:31;95297.28;;;3.86;100.00
76998;BME280;65930;48.874;10.734;2024-03-25T07:56:57;95309.34;;;3.81;100.00
76998;BME280;65930;48.874;10.734;2024-03-25T07:59:23;95309.09;;;3.97;100.00
76998;BME280;65930;48.874;10.734;2024-03-25T08:01:49;95305.88;;;3.88;100.00
76998;BME280;65930;48.874;10.734;2024-03-25T08:04:15;95305.38;;;3.75;100.00
76998;BME280;65930;48.874;10.734;2024-03-25T08:06:41;95303.16;;;3.88;100.00
76998;BME280;65930;48.874;10.734;2024-03-25T08:09:09;95307.56;;;3.96;100.00
76998;BME280;65930;48.874;10.734;2024-03-25T08:11:35;95300.50;;;3.95;100.00
76998;BME280;65930;48.874;10.734;2024-03-25T08:14:01;95294.28;;;4.42;100.00
76998;BME280;65930;48.874;10.734;2024-03-25T08:16:28;95300.47;;;4.35;100.00
76998;BME280;65930;48.874;10.734;2024-03-25T08:18:57;95305.94;;;4.32;100.00
76998;BME280;65930;48.874;10.734;2024-03-25T08:21:23;95309.72;;;4.20;100.00
76998;BME280;65930;48.874;10.734;2024-03-25T08:23:49;95310.56;;;4.24;100.00
76998;BME280;65930;48.874;10.734;2024-03-25T08:26:19;95301.25;;;4.32;100.00
76998;BME280;65930;48.874;10.734;2024-03-25T08:28:45;95304.00;;;4.36;100.00
76998;BME280;65930;48.874;10.734;2024-03-25T08:31:11;95300.03;;;4.81;100.00
76998;BME280;65930;48.874;10.734;2024-03-25T08:33:37;95297.44;;;5.02;100.00
76998;BME280;65930;48.874;10.734;2024-03-25T08:36:04;95299.94;;;4.67;100.00
76998;BME280;65930;48.874;10.734;2024-03-25T08:38:30;95295.56;;;4.59;100.00
76998;BME280;65930;48.874;10.734;2024-03-25T08:40:56;95295.38;;;4.85;100.00
76998;BME280;65930;48.874;10.734;2024-03-25T08:43:23;95287.50;;;4.80;100.00
76998;BME280;65930;48.874;10.734;2024-03-25T08:45:49;95294.41;;;5.18;100.00
76998;BME280;65930;48.874;10.734;2024-03-25T08:48:15;95303.03;;;5.16;100.00
76998;BME280;65930;48.874;10.734;2024-03-25T08:50:42;95284.75;;;5.49;96.97
76998;BME280;65930;48.874;10.734;2024-03-25T08:53:08;95289.91;;;4.88;100.00
76998;BME280;65930;48.874;10.734;2024-03-25T08:55:34;95285.16;;;4.85;99.50
76998;BME280;65930;48.874;10.734;2024-03-25T08:58:00;95282.56;;;5.03;96.27
76998;BME280;65930;48.874;10.734;2024-03-25T09:00:28;95290.81;;;5.07;99.58
76998;BME280;65930;48.874;10.734;2024-03-25T09:02:54;95281.34;;;4.97;100.00
76998;BME280;65930;48.874;10.734;2024-03-25T09:05:23;95282.13;;;4.94;99.33
76998;BME280;65930;48.874;10.734;2024-03-25T09:07:49;95287.34;;;5.17;97.02
76998;BME280;65930;48.874;10.734;2024-03-25T09:10:16;95286.97;;;5.22;97.27
76998;BME280;65930;48.874;10.734;2024-03-25T09:13:00;95289.38;;;5.30;98.60
76998;BME280;65930;48.874;10.734;2024-03-25T09:15:28;95283.38;;;5.07;95.05
76998;BME280;65930;48.874;10.734;2024-03-25T09:17:57;95286.06;;;5.00;96.34
76998;BME280;65930;48.874;10.734;2024-03-25T09:20:23;95277.38;;;4.91;92.79
76998;BME280;65930;48.874;10.734;2024-03-25T09:22:49;95285.22;;;4.93;90.35
76998;BME280;65930;48.874;10.734;2024-03-25T09:25:16;95281.66;;;4.85;92.59
76998;BME280;65930;48.874;10.734;2024-03-25T09:27:45;95291.81;;;4.81;94.27
76998;BME280;65930;48.874;10.734;2024-03-25T09:30:12;95278.91;;;4.85;95.68
76998;BME280;65930;48.874;10.734;2024-03-25T09:32:40;95281.31;;;4.94;96.67
76998;BME280;65930;48.874;10.734;2024-03-25T09:35:07;95279.38;;;4.94;97.14
76998;BME280;65930;48.874;10.734;2024-03-25T09:37:33;95279.72;;;4.89;96.85
76998;BME280;65930;48.874;10.734;2024-03-25T09:39:59;95275.47;;;4.99;95.95
76998;BME280;65930;48.874;10.734;2024-03-25T09:42:26;95264.09;;;5.00;96.04
76998;BME280;65930;48.874;10.734;2024-03-25T09:44:54;95261.66;;;5.71;91.90
76998;BME280;65930;48.874;10.734;2024-03-25T09:47:23;95249.63;;;6.14;87.22
76998;BME280;65930;48.874;10.734;2024-03-25T09:49:59;95243.31;;;6.74;88.48
76998;BME280;65930;48.874;10.734;2024-03-25T09:52:28;95244.88;;;6.54;82.97
76998;BME280;65930;48.874;10.734;2024-03-25T09:54:54;95239.41;;;6.33;82.49
76998;BME280;65930;48.874;10.734;2024-03-25T09:57:21;95234.28;;;6.70;81.23
76998;BME280;65930;48.874;10.734;2024-03-25T09:59:47;95237.31;;;7.18;79.13
76998;BME280;65930;48.874;10.734;2024-03-25T10:02:14;95225.16;;;7.08;78.22
76998;BME280;65930;48.874;10.734;2024-03-25T10:04:45;95226.66;;;7.24;77.21
76998;BME280;65930;48.874;10.734;2024-03-25T10:07:21;95218.09;;;6.97;79.25
76998;BME280;65930;48.874;10.734;2024-03-25T10:09:48;95210.16;;;7.17;76.35
76998;BME280;65930;48.874;10.734;2024-03-25T10:12:14;95217.28;;;7.00;76.51
76998;BME280;65930;48.874;10.734;2024-03-25T10:14:40;95221.25;;;6.81;74.89
76998;BME280;65930;48.874;10.734;2024-03-25T10:17:10;95218.13;;;6.86;71.90
76998;BME280;65930;48.874;10.734;2024-03-25T10:19:36;95216.44;;;7.24;72.23
76998;BME280;65930;48.874;10.734;2024-03-25T10:22:06;95210.84;;;7.42;72.29
76998;BME280;65930;48.874;10.734;2024-03-25T10:24:41;95203.03;;;7.37;68.60
76998;BME280;65930;48.874;10.734;2024-03-25T10:27:11;95218.03;;;7.22;69.81
76998;BME280;65930;48.874;10.734;2024-03-25T10:29:42;95212.97;;;6.95;70.06
76998;BME280;65930;48.874;10.734;2024-03-25T10:32:09;95209.81;;;7.07;68.66
76998;BME280;65930;48.874;10.734;2024-03-25T10:34:41;95206.25;;;7.18;70.41
76998;BME280;65930;48.874;10.734;2024-03-25T10:37:09;95198.81;;;7.04;70.30
76998;BME280;65930;48.874;10.734;2024-03-25T10:39:43;95194.44;;;7.10;68.58
76998;BME280;65930;48.874;10.734;2024-03-25T10:42:14;95177.19;;;7.02;68.30
76998;BME280;65930;48.874;10.734;2024-03-25T10:44:40;95188.81;;;7.38;66.63
76998;BME280;65930;48.874;10.734;2024-03-25T10:47:08;95178.91;;;7.55;66.83
76998;BME280;65930;48.874;10.734;2024-03-25T10:49:44;95180.91;;;7.51;62.19
76998;BME280;65930;48.874;10.734;2024-03-25T10:52:14;95181.44;;;7.90;62.88
76998;BME280;65930;48.874;10.734;2024-03-25T10:54:43;95174.94;;;7.63;62.06
76998;BME280;65930;48.874;10.734;2024-03-25T10:57:12;95176.94;;;7.56;63.68
76998;BME280;65930;48.874;10.734;2024-03-25T10:59:42;95169.47;;;8.15;63.39
76998;BME280;65930;48.874;10.734;2024-03-25T11:02:12;95158.66;;;7.79;63.39
76998;BME280;65930;48.874;10.734;2024-03-25T11:04:39;95158.88;;;7.44;62.34
76998;BME280;65930;48.874;10.734;2024-03-25T11:07:07;95150.84;;;7.74;62.58
76998;BME280;65930;48.874;10.734;2024-03-25T11:09:36;95154.19;;;7.37;62.02
76998;BME280;65930;48.874;10.734;2024-03-25T11:12:05;95156.44;;;7.60;63.47
76998;BME280;65930;48.874;10.734;2024-03-25T11:14:31;95150.34;;;7.21;61.82
76998;BME280;65930;48.874;10.734;2024-03-25T11:16:58;95140.47;;;7.92;62.85
76998;BME280;65930;48.874;10.734;2024-03-25T11:19:26;95131.00;;;8.42;61.13
76998;BME280;65930;48.874;10.734;2024-03-25T11:21:53;95134.41;;;7.60;61.07
76998;BME280;65930;48.874;10.734;2024-03-25T11:24:27;95120.91;;;7.73;62.25
76998;BME280;65930;48.874;10.734;2024-03-25T11:26:53;95128.34;;;7.83;62.38
76998;BME280;65930;48.874;10.734;2024-03-25T11:29:21;95120.66;;;7.53;62.67
76998;BME280;65930;48.874;10.734;2024-03-25T11:31:49;95111.09;;;7.68;61.80
76998;BME280;65930;48.874;10.734;2024-03-25T11:34:15;95113.69;;;7.34;62.56
76998;BME280;65930;48.874;10.734;2024-03-25T11:36:45;95108.53;;;7.40;61.38
76998;BME280;65930;48.874;10.734;2024-03-25T11:39:11;95105.31;;;8.86;59.77
76998;BME280;65930;48.874;10.734;2024-03-25T11:41:39;95103.69;;;9.22;57.60
76998;BME280;65930;48.874;10.734;2024-03-25T11:44:09;95106.84;;;9.51;60.16
76998;BME280;65930;48.874;10.734;2024-03-25T11:46:38;95095.28;;;8.24;58.08
76998;BME280;65930;48.874;10.734;2024-03-25T11:49:06;95107.97;;;7.66;59.42
76998;BME280;65930;48.874;10.734;2024-03-25T11:51:33;95099.56;;;7.84;60.21
76998;BME280;65930;48.874;10.734;2024-03-25T11:53:59;95092.63;;;8.13;60.37
76998;BME280;65930;48.874;10.734;2024-03-25T11:56:26;95092.09;;;7.81;59.66
76998;BME280;65930;48.874;10.734;2024-03-25T11:58:52;95098.75;;;7.32;56.64
76998;BME280;65930;48.874;10.734;2024-03-25T12:01:21;95097.81;;;7.52;59.83
76998;BME280;65930;48.874;10.734;2024-03-25T12:03:49;95094.38;;;7.41;59.29
76998;BME280;65930;48.874;10.734;2024-03-25T12:06:15;95093.38;;;7.69;58.12
76998;BME280;65930;48.874;10.734;2024-03-25T12:08:41;95080.16;;;7.43;57.23
76998;BME280;65930;48.874;10.734;2024-03-25T12:11:07;95078.00;;;7.72;57.26
76998;BME280;65930;48.874;10.734;2024-03-25T12:13:46;95087.66;;;7.97;57.98
76998;BME280;65930;48.874;10.734;2024-03-25T12:16:12;95077.41;;;8.43;55.59
76998;BME280;65930;48.874;10.734;2024-03-25T12:18:40;95067.28;;;8.66;55.29
76998;BME280;65930;48.874;10.734;2024-03-25T12:21:10;95069.53;;;9.09;53.00
76998;BME280;65930;48.874;10.734;2024-03-25T12:23:39;95069.03;;;9.44;55.09
76998;BME280;65930;48.874;10.734;2024-03-25T12:26:08;95065.84;;;9.46;52.64
76998;BME280;65930;48.874;10.734;2024-03-25T12:28:34;95061.31;;;9.02;53.27
76998;BME280;65930;48.874;10.734;2024-03-25T12:31:00;95046.47;;;9.72;51.39
76998;BME280;65930;48.874;10.734;2024-03-25T12:33:26;95050.72;;;10.27;54.54
76998;BME280;65930;48.874;10.734;2024-03-25T12:35:53;95043.63;;;9.26;52.31
76998;BME280;65930;48.874;10.734;2024-03-25T12:38:25;95040.47;;;9.78;50.88
76998;BME280;65930;48.874;10.734;2024-03-25T12:40:51;95036.75;;;9.64;50.95
76998;BME280;65930;48.874;10.734;2024-03-25T12:43:18;95032.00;;;10.11;51.50
76998;BME280;65930;48.874;10.734;2024-03-25T12:45:44;95031.31;;;9.84;50.92
76998;BME280;65930;48.874;10.734;2024-03-25T12:48:10;95035.75;;;9.78;50.10
76998;BME280;65930;48.874;10.734;2024-03-25T12:50:37;95022.69;;;10.02;51.68
76998;BME280;65930;48.874;10.734;2024-03-25T12:53:03;95020.22;;;10.07;51.44